Date,TemperatureHighF,TemperatureAvgF,TemperatureLowF,DewpointHighF,DewpointAvgF,DewpointLowF,HumidityHigh,HumidityAvg,HumidityLow,PressureMaxIn,PressureMinIn,WindSpeedMaxMPH,WindSpeedAvgMPH,GustSpeedMaxMPH,PrecipitationSumIn
2012-1-1,30,24,15,28,22,12,95,90,84,30.01,29.65,20,4,20,0.00
2012-1-2,15,11,2,12,8,-2,90,87,81,30.45,30.01,17,2,19,0.00
2012-1-3,16,5,-9,7,-1,-13,87,77,58,30.43,29.91,16,1,16,0.00
2012-1-4,29,20,7,23,16,3,94,84,76,30.04,29.91,10,1,10,0.00
2012-1-5,40,34,18,32,28,16,94,78,71,29.87,29.49,15,3,15,0.17
2012-1-6,42,37,32,32,30,26,83,76,61,29.65,29.49,16,3,16,0.15
2012-1-9,43,35,24,29,27,22,91,73,57,29.93,29.74,19,3,19,0.07
2012-1-10,45,29,16,33,24,14,96,84,61,29.96,29.68,19,1,19,0.07
2012-1-11,40,30,23,34,28,21,95,91,76,29.68,29.56,14,0,14,0.04
2012-1-12,23,17,14,21,14,10,93,88,83,29.72,29.62,14,1,14,0.00
2012-1-13,15,12,8,12,8,4,92,84,74,30.05,29.72,12,1,12,0.00
2012-1-14,11,8,4,6,4,1,99,83,79,30.20,30.04,10,0,10,0.00
2012-1-15,28,20,9,23,16,6,92,86,80,30.22,29.86,19,3,19,0.00
2012-1-16,29,26,22,26,22,17,92,88,82,29.93,29.77,13,1,13,0.00
2012-1-17,22,14,7,17,10,2,92,85,79,30.20,29.88,19,2,20,0.00
2012-1-18,18,6,-11,12,0,-15,89,76,56,30.22,29.63,21,3,21,0.00
2012-1-19,5,-6,-13,1,-12,-19,84,73,59,30.22,29.72,18,2,18,0.00
2012-1-20,5,-9,-19,-7,-15,-23,92,73,50,30.33,30.22,7,0,7,0.00
2012-1-21,17,1,-20,11,-7,-25,86,70,55,30.36,30.04,22,2,22,0.00
2012-1-22,27,22,17,24,19,11,94,87,76,30.04,29.55,19,2,20,0.00
2012-1-23,28,23,19,28,21,16,100,92,88,29.76,29.40,15,2,15,0.00
2012-1-24,24,18,10,19,15,8,98,88,80,30.31,29.76,12,1,14,0.00
2012-1-25,32,23,15,28,21,13,94,89,85,30.33,29.92,16,2,16,0.00
2012-1-26,32,29,27,29,26,23,93,89,82,29.92,29.61,16,3,16,0.00
2012-1-27,35,25,11,27,20,8,94,83,47,29.80,29.66,19,2,19,0.00
2012-1-28,23,18,13,21,14,10,100,87,80,29.89,29.75,19,2,19,0.00
2012-1-30,28,22,10,21,17,7,92,82,71,29.97,29.78,11,1,11,0.00
2012-1-31,43,32,23,33,27,20,92,82,65,29.85,29.58,12,2,15,0.25
2012-2-1,35,29,22,30,26,20,95,88,80,30.12,29.86,14,2,14,0.01
2012-2-2,34,30,25,31,28,24,96,93,88,30.42,30.11,8,0,8,0.00
2012-2-3,37,30,17,29,25,15,92,83,66,30.52,30.41,10,0,10,0.07
2012-2-4,44,26,10,27,19,8,100,78,47,30.43,30.24,16,1,16,0.08
2012-2-5,38,30,22,28,25,20,95,82,63,30.31,30.08,14,2,14,0.02
2012-2-6,36,27,21,29,24,18,94,89,74,30.34,30.00,14,3,14,0.00
2012-2-7,25,17,5,18,9,0,87,72,49,30.54,30.34,8,1,13,0.00
2012-2-8,32,16,1,5,-2,-6,84,50,19,30.46,30.17,11,2,15,0.00
2012-2-9,33,23,12,22,11,4,91,62,35,30.18,29.88,20,2,20,0.00
2012-2-10,24,11,6,21,5,0,88,77,66,30.37,29.92,19,2,19,0.00
2012-2-11,13,7,0,4,-1,-5,80,69,57,30.44,30.33,17,3,17,0.00
2012-2-12,32,17,2,4,-1,-5,73,48,25,30.35,30.09,15,2,15,0.00
2012-2-13,29,17,-2,19,7,-7,87,65,42,30.10,29.78,13,1,13,0.00
2012-2-14,29,26,23,24,22,19,98,86,79,29.86,29.74,11,1,11,0.00
2012-2-15,36,30,26,30,27,23,95,90,78,29.99,29.85,9,0,9,0.03
2012-2-16,35,31,26,30,24,19,95,78,57,30.01,29.93,16,2,16,0.02
2012-2-17,32,25,18,27,21,15,90,83,75,30.05,29.98,10,1,10,0.00
2012-2-20,39,31,10,25,18,8,92,61,37,30.21,29.81,17,3,17,0.00
2012-2-21,32,30,28,31,27,23,94,88,77,29.81,29.38,18,3,18,0.02
2012-2-22,29,27,24,25,22,20,92,84,75,29.43,29.35,15,2,15,0.00
2012-2-23,29,25,20,22,20,16,88,79,68,29.70,29.43,11,0,11,0.01
2012-2-24,28,23,17,23,19,14,89,86,82,29.91,29.66,12,1,12,0.00
2012-2-25,25,17,10,17,13,6,90,83,65,30.26,29.91,14,1,14,0.00
2012-2-26,32,24,12,28,19,9,91,81,66,30.26,29.79,22,2,22,0.00
2012-2-27,28,22,11,26,18,8,91,83,67,30.44,29.82,17,2,17,0.00
2012-2-28,29,23,11,26,20,9,99,88,82,30.43,29.96,12,1,12,0.00
2012-2-29,30,28,27,29,27,25,96,95,94,29.96,29.43,14,3,16,0.00
2012-3-1,30,28,26,29,27,25,96,95,94,29.79,29.63,4,0,4,0.00
2012-3-2,33,30,26,31,28,25,96,95,90,29.79,29.46,5,0,5,0.00
2012-3-3,29,23,14,28,20,12,95,89,81,29.83,29.43,10,1,10,0.00
2012-3-4,23,13,4,15,9,1,90,84,67,30.10,29.83,7,0,7,0.00
2012-3-5,30,19,5,22,14,3,92,82,62,30.26,30.03,16,2,16,0.00
2012-3-6,46,35,23,38,29,20,90,78,62,30.03,29.66,19,2,19,0.34
2012-3-7,47,40,29,44,38,27,97,90,78,29.75,29.49,14,2,14,0.24
2012-3-8,32,26,20,28,20,15,100,80,49,30.18,29.75,23,4,24,0.02
2012-3-9,27,21,14,17,10,2,90,66,34,30.55,30.18,14,2,14,0.03
2012-3-10,52,39,24,33,23,8,68,54,41,30.36,29.91,14,4,20,0.01
2012-3-11,61,49,39,36,31,28,66,52,37,30.01,29.89,14,2,14,0.00
2012-3-12,49,44,40,46,41,28,98,90,58,29.90,29.57,16,2,17,0.49
2012-3-13,56,42,31,42,28,15,96,66,21,30.00,29.67,17,2,17,0.01
2012-3-14,68,48,31,51,38,25,88,71,54,29.96,29.75,13,1,15,0.00
2012-3-15,61,49,34,35,28,23,79,47,31,30.05,29.97,11,1,11,0.00
2012-3-16,70,50,32,54,41,27,89,72,52,30.05,29.88,13,1,15,0.00
2012-3-17,74,62,49,61,55,46,98,80,57,29.88,29.76,19,2,19,0.00
2012-3-18,74,64,54,60,55,53,95,75,53,29.85,29.75,20,2,20,0.00
2012-3-19,76,65,57,60,56,54,92,74,53,29.81,29.71,22,3,22,0.00
2012-3-20,69,61,52,59,56,50,97,85,69,29.92,29.72,17,2,20,0.02
2012-3-21,68,59,50,56,53,49,98,81,65,30.06,29.88,24,2,24,0.03
2012-3-22,56,54,52,55,53,52,99,97,95,30.13,30.03,10,0,10,0.18
2012-3-23,60,55,51,58,54,51,100,97,89,30.05,29.87,9,0,10,0.14
2012-3-24,61,55,50,56,53,50,100,95,81,29.93,29.85,7,0,7,0.01
2012-3-25,53,39,27,52,32,21,98,78,51,30.33,29.93,13,2,13,0.00
2012-3-26,47,34,22,22,18,12,87,56,29,30.46,30.13,22,2,22,0.00
2012-3-27,64,43,32,51,33,15,87,69,39,30.15,29.48,27,4,27,0.05
2012-4-3,56,46,32,43,34,27,92,64,34,30.05,30.00,12,1,12,0.19
2012-4-4,54,39,29,31,27,22,93,68,30,30.12,30.01,12,1,12,0.00
2012-4-5,49,40,28,25,23,19,87,54,31,30.26,30.17,12,2,12,0.00
2012-4-6,57,39,23,30,22,19,87,56,25,30.36,30.17,12,1,13,0.00
2012-4-7,62,47,34,45,33,28,94,63,28,30.21,29.94,20,3,21,0.16
2012-4-8,53,42,32,38,28,22,94,61,32,30.07,29.95,23,3,26,0.01
2012-4-9,37,33,28,29,22,16,82,64,47,30.07,29.90,18,2,18,0.00
2012-4-10,37,30,25,25,20,15,89,66,46,30.22,30.05,17,2,17,0.00
2012-4-11,49,36,26,32,27,22,91,71,47,30.37,30.22,11,1,13,0.00
2012-4-12,58,41,24,34,26,22,97,63,29,30.24,30.10,11,1,11,0.00
2012-4-13,58,52,34,39,33,28,82,50,33,30.13,29.80,22,4,22,0.00
2012-4-14,70,57,46,48,43,39,94,64,33,29.81,29.65,22,4,24,0.02
2012-4-15,64,54,46,59,49,40,96,85,67,29.68,29.22,12,1,12,0.04
2012-4-16,64,35,25,59,32,21,98,89,79,30.20,29.19,19,2,24,0.13
2012-4-17,47,35,24,33,26,20,88,73,51,30.38,30.17,15,2,16,0.07
2012-4-18,41,38,35,40,36,31,97,91,83,30.18,29.88,11,0,11,0.18
2012-4-19,44,38,34,34,31,25,91,74,61,30.07,29.97,13,2,13,0.05
2012-4-20,48,38,30,32,27,22,92,67,40,30.09,29.96,17,2,17,0.00
2012-4-21,52,40,25,32,26,22,92,61,36,30.11,29.98,11,1,11,0.00
2012-4-22,53,42,29,35,29,23,86,63,40,30.20,30.05,11,1,12,0.00
2012-4-23,55,41,26,34,25,17,93,59,23,30.18,29.86,18,1,18,0.00
2012-4-24,60,46,29,34,28,22,85,55,29,29.86,29.67,16,1,18,0.00
2012-4-25,50,44,40,44,37,27,96,77,45,29.74,29.65,8,0,8,0.18
2012-4-26,45,37,27,43,29,21,97,75,41,30.20,29.74,20,2,20,0.05
2012-4-27,53,39,25,27,20,14,90,54,23,30.30,30.18,12,1,12,0.00
2012-4-29,61,55,51,28,25,22,37,32,23,30.13,30.08,13,1,13,0.00
2012-4-30,51,43,38,45,40,27,96,90,39,30.10,29.85,9,1,14,0.25
2012-5-1,70,55,37,52,46,36,100,75,47,29.91,29.67,21,3,21,0.00
2012-5-2,76,62,53,59,53,49,97,77,43,29.79,29.56,14,2,14,0.11
2012-5-3,72,60,48,62,54,46,98,84,63,29.93,29.70,20,1,20,0.50
2012-5-4,63,52,44,48,45,42,96,79,53,30.08,29.92,13,2,13,0.00
2012-5-5,60,53,45,52,46,40,87,78,69,30.08,29.99,12,1,12,0.00
2012-5-6,55,47,44,49,46,43,100,94,73,30.08,29.96,16,1,16,0.65
2012-5-7,66,53,45,52,47,44,100,81,48,29.97,29.77,16,1,16,0.18
2012-5-8,57,49,44,50,44,41,93,84,59,29.91,29.75,9,1,9,0.01
2012-5-9,60,49,37,42,35,21,94,63,23,29.98,29.90,17,1,17,0.01
2012-5-10,69,54,33,44,36,31,97,58,30,29.97,29.86,14,1,14,0.00
2012-5-11,73,56,45,54,46,40,89,71,50,30.13,29.84,16,2,16,0.01
2012-5-12,67,54,42,47,35,25,92,55,21,30.29,30.12,13,1,13,0.00
2012-5-13,72,57,37,41,36,28,97,52,24,30.23,29.98,15,2,15,0.00
2012-5-14,79,64,51,53,44,37,76,49,27,29.99,29.77,16,1,16,0.00
2012-5-15,67,57,38,52,44,34,87,62,40,29.97,29.65,19,2,19,0.00
2012-5-16,61,48,33,37,32,22,100,60,23,30.12,29.97,16,1,16,0.00
2012-5-17,65,54,38,52,42,32,86,66,44,30.11,29.82,24,2,24,0.04
2012-5-18,84,70,56,58,50,43,64,51,36,29.89,29.75,20,3,20,0.00
2012-5-19,86,74,62,58,54,48,65,50,36,29.85,29.75,25,3,28,0.00
2012-5-20,73,70,67,61,58,57,78,67,58,29.81,29.76,11,1,11,0.00
2012-5-21,66,58,42,45,39,32,88,52,32,30.20,30.12,14,1,14,0.04
2012-5-22,70,55,39,48,42,37,95,65,38,30.12,29.78,15,1,15,0.01
2012-5-23,73,64,54,52,48,43,68,56,44,29.80,29.50,24,3,24,0.00
2012-5-24,80,65,55,64,54,48,92,68,54,29.59,29.33,21,2,21,0.00
2012-5-29,60,54,48,52,48,45,96,79,62,29.79,29.60,21,3,23,0.02
2012-5-30,49,44,36,46,39,34,96,84,65,30.02,29.78,13,1,13,0.02
2012-5-31,62,48,34,44,38,32,100,71,40,30.08,29.97,9,1,13,0.07
2012-6-1,68,52,34,44,38,33,99,64,30,29.97,29.71,12,1,12,0.03
2012-6-2,73,58,38,46,40,32,90,57,28,29.70,29.59,20,2,20,0.06
2012-6-3,76,63,46,53,47,42,91,61,31,29.81,29.65,15,1,15,0.04
2012-6-4,76,64,55,59,55,52,92,74,47,29.92,29.80,10,0,10,0.02
2012-6-5,76,62,50,59,52,48,95,75,41,30.03,29.92,12,1,12,0.02
2012-6-6,76,63,49,58,51,46,98,71,36,30.09,30.01,12,1,12,0.00
2012-6-7,78,64,48,60,54,46,98,74,47,30.09,29.95,13,1,14,0.00
2012-6-8,78,66,55,68,61,54,97,84,60,29.96,29.68,17,1,17,0.13
2012-6-9,86,76,64,62,60,58,93,60,40,29.71,29.63,16,2,16,0.00
2012-6-10,86,76,64,64,60,56,77,58,42,29.74,29.60,22,4,22,0.00
2012-6-11,80,71,56,64,58,42,90,66,38,29.76,29.55,24,4,24,0.01
2012-6-12,63,54,43,45,41,36,89,64,40,30.11,29.75,20,2,20,0.00
2012-6-13,74,58,40,52,46,38,95,66,39,30.15,29.99,17,2,17,0.00
2012-6-14,62,57,52,57,51,42,96,82,59,30.06,29.82,21,2,21,0.66
2012-6-15,80,73,64,67,65,62,95,76,62,29.98,29.94,10,1,10,0.01
2012-6-16,76,66,57,66,62,55,100,88,66,29.97,29.65,17,1,17,0.06
2012-6-17,77,65,55,60,55,49,98,73,40,29.74,29.55,18,2,18,0.02
2012-6-18,85,70,58,72,63,56,98,83,46,29.63,29.40,16,1,16,0.31
2012-6-19,83,70,58,74,65,56,100,87,64,29.82,29.63,15,1,15,0.01
2012-6-20,83,72,64,72,67,62,99,86,70,29.77,29.58,22,2,22,0.01
2012-6-21,71,65,57,63,57,51,98,78,49,29.90,29.67,19,2,19,0.02
2012-6-22,73,62,50,61,55,48,99,81,53,29.95,29.90,13,1,13,0.02
2012-6-23,69,61,52,62,58,51,100,92,65,29.99,29.90,11,0,11,0.01
2012-6-24,70,63,50,63,56,48,99,81,48,30.10,29.91,11,1,11,0.01
2012-6-25,75,60,44,56,49,43,100,71,41,30.19,30.03,7,0,9,0.01
2012-6-26,78,64,48,59,53,46,98,71,45,30.04,29.81,13,1,13,0.00
2012-6-27,86,74,62,72,62,54,90,69,56,29.82,29.59,15,2,15,0.01
2012-6-28,82,73,66,70,61,53,98,69,38,29.79,29.64,14,1,14,0.01
2012-6-29,84,72,58,63,58,54,89,65,40,29.79,29.67,11,2,19,0.01
2012-6-30,81,69,56,62,57,50,96,69,35,29.84,29.70,10,1,13,0.00
2012-7-1,86,71,54,70,61,52,97,74,45,29.93,29.84,10,1,10,0.01
2012-7-2,90,78,63,76,70,62,97,79,56,29.89,29.68,18,1,32,0.00
2012-7-3,88,81,66,74,71,65,95,73,55,29.72,29.66,20,1,20,0.00
2012-7-4,90,78,67,80,73,64,100,84,62,29.81,29.69,20,1,20,0.01
2012-7-5,90,81,63,75,67,57,91,64,35,29.90,29.81,11,1,12,0.00
2012-7-6,85,68,57,71,62,56,97,84,60,29.99,29.84,14,1,14,0.00
2012-7-7,80,68,59,66,60,55,98,78,44,30.07,29.96,12,1,12,0.00
2012-7-8,82,69,56,66,60,55,99,75,49,30.08,30.00,10,1,12,0.00
2012-7-9,80,67,55,62,57,53,98,72,43,30.08,30.02,12,1,12,0.01
2012-7-10,78,66,52,62,57,51,98,76,47,30.15,30.06,9,0,9,0.00
2012-7-11,83,70,56,64,59,54,97,71,45,30.13,30.00,11,1,11,0.00
2012-7-12,85,72,57,64,59,55,96,69,41,30.05,29.94,13,1,13,0.00
2012-7-13,84,73,62,72,63,57,93,72,52,29.98,29.87,14,1,14,0.00
2012-7-14,80,70,63,72,66,61,96,87,70,29.94,29.87,13,1,13,0.00
2012-7-15,87,74,62,71,65,61,100,78,44,29.98,29.91,11,0,11,0.00
2012-7-16,91,78,64,72,67,62,98,72,46,29.94,29.60,23,2,23,0.00
2012-7-17,78,70,62,70,66,61,96,88,75,29.89,29.62,9,0,9,0.00
2012-7-18,74,66,57,64,60,56,98,82,65,30.00,29.86,10,0,11,0.00
2012-7-19,78,67,58,63,59,56,95,78,50,30.04,29.91,7,0,9,0.00
2012-7-20,81,70,58,67,62,56,95,75,59,30.10,29.94,16,2,18,0.00
2012-7-21,84,74,57,68,62,52,91,69,35,29.96,29.88,10,1,12,0.00
2012-7-22,89,72,54,72,64,53,99,76,52,29.98,29.78,12,1,13,0.00
2012-7-23,86,76,65,70,66,61,97,73,48,29.89,29.76,16,1,16,0.00
2012-7-24,84,71,55,66,59,54,98,70,39,29.99,29.82,11,1,11,0.00
2012-7-25,77,69,61,73,66,60,98,91,84,29.82,29.52,10,1,18,0.29
2012-7-26,78,68,62,68,64,60,98,88,56,29.74,29.55,14,1,14,0.01
2012-7-27,74,64,51,62,58,49,98,83,52,30.04,29.74,13,1,13,0.01
2012-7-28,79,63,46,59,52,45,100,73,36,30.13,30.02,9,1,9,0.01
2012-7-29,81,69,54,67,62,53,100,80,55,30.03,29.86,11,1,11,0.01
2012-7-30,82,71,64,70,65,61,95,81,57,29.89,29.75,18,2,18,0.00
2012-7-31,79,67,58,62,58,51,99,75,39,29.95,29.84,8,1,12,0.01
2012-8-1,79,68,53,71,62,51,98,83,53,29.91,29.70,14,1,14,0.00
2012-8-2,81,72,63,69,64,61,97,80,53,29.83,29.71,12,0,12,0.00
2012-8-3,80,70,60,68,64,58,99,84,61,29.91,29.81,9,1,9,0.01
2012-8-4,70,68,68,67,66,66,95,94,92,29.82,29.75,13,1,13,0.00
2012-8-6,80,74,60,61,59,55,84,61,47,30.05,29.85,14,2,14,0.00
2012-8-7,76,67,56,63,59,54,99,78,48,29.98,29.84,12,1,12,0.00
2012-8-8,62,58,53,60,57,52,98,95,88,30.03,29.97,5,0,5,0.01
2012-8-9,60,58,54,60,57,52,100,98,85,30.00,29.96,6,0,6,0.00
2012-10-9,40,38,34,37,34,31,93,85,76,29.79,29.66,16,2,16,0.06
2012-10-10,41,35,28,32,26,20,91,70,46,30.00,29.78,18,2,18,0.00
2012-10-11,41,34,28,34,30,25,96,85,62,30.34,29.86,18,1,18,0.12
2012-10-12,46,34,22,31,25,20,97,72,40,30.46,30.16,14,1,14,0.02
2012-10-13,44,41,37,43,38,22,97,89,51,30.16,29.72,16,1,16,0.06
2012-10-14,44,41,39,43,40,38,98,97,95,29.79,29.64,14,1,14,0.02
2012-10-15,53,41,36,38,36,33,95,82,54,29.93,29.78,9,0,9,0.00
2012-10-16,58,47,41,50,44,37,96,89,71,29.84,29.45,14,0,14,0.13
2012-10-17,64,51,40,54,48,39,99,89,65,29.45,29.19,17,1,17,0.03
2012-10-18,49,46,42,48,45,42,97,96,89,29.40,29.08,9,0,9,0.30
2012-10-19,48,43,39,42,40,38,97,92,78,29.67,29.40,10,0,10,0.05
2012-10-20,52,44,37,44,41,35,100,90,70,29.85,29.66,6,0,6,0.02
2012-10-21,59,44,31,46,39,30,100,84,58,29.96,29.84,12,1,12,0.19
2012-10-22,59,49,41,48,44,39,99,83,65,30.03,29.94,14,1,14,0.02
2012-10-23,56,51,46,56,50,43,99,95,90,29.98,29.79,13,1,13,0.02
2012-10-24,64,59,51,63,59,50,100,99,88,29.83,29.59,15,1,15,0.02
2012-10-25,51,42,33,50,41,30,99,96,89,29.95,29.46,19,2,19,0.05
2012-10-26,37,33,31,30,26,22,91,77,62,30.32,29.95,19,2,19,0.04
2012-10-27,38,31,25,24,22,20,89,71,49,30.37,30.29,13,1,13,1.33
2012-10-28,43,30,22,26,23,20,100,77,44,30.42,30.34,11,1,12,0.13
2012-10-29,46,32,22,30,25,20,97,78,47,30.43,30.28,9,0,9,0.13
2012-10-30,37,32,30,29,26,23,94,78,62,30.29,29.99,22,2,22,0.02
2012-10-31,41,32,26,29,24,19,84,73,49,29.99,29.87,10,1,17,0.01
2012-11-1,36,34,30,34,29,22,94,84,65,29.99,29.84,13,1,13,0.02
2012-11-2,35,30,26,28,24,22,86,78,66,30.23,29.99,13,1,13,0.00
2012-11-3,35,28,23,27,23,21,92,83,70,30.29,30.22,8,0,8,0.00
2012-11-4,37,27,19,26,22,17,95,84,62,30.32,30.24,7,0,7,0.00
2012-11-5,34,26,19,27,23,17,95,88,74,30.30,30.05,6,0,6,0.00
2012-11-6,34,32,30,32,30,26,96,92,84,30.04,29.78,13,1,13,0.04
2012-11-7,37,35,33,36,34,32,98,96,93,30.11,29.94,6,0,6,0.02
2012-11-8,48,39,34,38,35,32,97,86,66,30.10,29.90,15,1,18,0.01
2012-11-9,41,38,34,37,36,31,95,90,84,30.13,30.05,11,1,11,0.00
2012-11-10,50,40,33,50,39,30,100,95,87,30.13,29.64,13,1,13,0.19
2012-11-14,38,34,30,31,28,25,90,80,71,30.36,30.21,11,1,11,0.00
2012-11-15,50,37,26,35,30,22,90,76,53,30.41,30.17,13,1,13,0.00
2012-11-16,39,28,20,32,22,18,94,78,45,30.53,30.41,11,0,11,0.00
2012-11-17,48,40,34,39,35,32,95,84,68,30.44,30.32,14,2,14,0.00
2012-11-18,52,44,36,35,33,31,82,66,49,30.33,30.17,14,2,14,0.00
2012-11-19,54,45,35,42,37,30,86,74,59,30.17,30.03,14,1,14,0.01
2012-11-20,43,35,29,38,33,28,99,95,82,30.14,30.03,4,0,5,0.00
2012-11-21,51,40,28,42,36,27,100,88,68,30.11,29.79,14,1,14,0.00
2012-11-22,59,47,27,44,40,25,93,77,58,29.79,29.53,19,3,19,0.01
2012-11-23,27,22,18,25,20,16,93,90,87,30.23,29.61,19,4,19,0.00
2012-11-24,22,20,17,20,16,14,93,85,78,30.25,29.85,10,1,10,0.00
2012-11-25,24,22,20,21,19,17,93,90,85,30.08,29.80,15,2,15,0.00
2012-11-26,20,13,5,17,9,2,100,85,74,30.37,30.08,11,1,11,0.00
2012-11-27,27,17,0,22,13,-4,92,75,67,30.35,30.12,14,2,14,0.00
2012-11-28,24,21,18,21,17,13,89,83,74,30.32,30.15,12,2,12,0.00
2012-11-29,26,22,15,25,20,13,95,92,89,30.29,30.15,11,1,12,0.00
2012-11-30,29,26,22,28,23,16,95,90,76,30.31,30.18,7,1,12,0.00
2012-12-1,38,34,29,37,33,28,99,97,95,30.18,29.77,16,2,16,0.25
2012-12-2,36,34,33,36,34,32,99,98,95,29.99,29.79,12,1,12,0.08
2012-12-3,52,43,33,52,42,33,100,97,78,29.94,29.52,19,3,19,0.01
2012-12-4,40,27,19,33,20,11,86,72,53,30.34,29.72,20,4,20,0.00
2012-12-5,30,25,19,22,18,16,88,76,63,30.45,30.04,15,2,16,0.00
2012-12-6,36,33,26,36,30,22,97,88,71,30.05,29.73,20,3,20,0.09
2012-12-7,26,24,0,23,20,0,92,83,78,30.06,29.90,5,0,9,0.00
2012-12-8,30,23,19,22,19,16,94,87,69,30.17,30.04,7,0,7,0.00
2012-12-9,27,24,20,24,22,18,94,89,81,30.22,29.84,11,1,11,0.00
2012-12-10,25,24,18,23,21,16,95,89,80,29.86,29.81,3,0,3,0.00
2012-12-11,18,15,12,14,12,8,87,85,83,30.04,29.78,16,2,16,0.00
2012-12-12,37,22,9,27,17,6,91,81,67,30.15,29.97,23,2,23,0.01
2012-12-13,38,33,27,28,24,22,93,73,55,30.13,29.97,18,1,18,0.00
2012-12-14,34,28,24,28,25,22,94,89,76,30.20,30.02,14,1,14,0.00
2012-12-15,36,34,29,34,32,27,97,93,89,30.03,29.57,13,1,13,0.10
2012-12-18,28,22,14,25,20,12,93,89,79,29.84,29.70,6,0,6,0.00
2012-12-19,27,22,13,26,20,10,96,93,91,30.06,29.84,8,1,9,0.00
2012-12-20,30,27,25,29,26,23,96,95,92,30.02,29.66,12,1,13,0.00
2012-12-21,25,18,0,23,16,0,93,84,86,30.19,29.77,13,1,13,0.00
2012-12-22,28,14,1,19,10,-2,93,84,63,30.18,29.96,12,1,12,0.00
2012-12-23,19,15,8,16,12,6,91,86,76,30.11,30.02,11,1,11,0.00
2012-12-24,20,14,10,14,11,7,91,87,79,30.24,30.03,9,0,9,0.00
2012-12-25,17,8,-7,11,5,-10,91,86,78,30.49,30.23,5,0,5,0.00
2012-12-26,19,9,-8,15,6,-12,92,88,82,30.45,30.31,6,0,6,0.00
2012-12-27,21,18,16,16,14,12,92,86,78,30.33,30.20,10,0,10,0.00
2012-12-28,22,17,12,18,14,9,93,89,83,30.21,30.01,9,0,9,0.00
2012-12-29,21,15,6,18,12,3,93,89,83,30.12,30.00,9,0,9,0.00
2012-12-30,22,15,6,15,10,4,90,83,73,30.19,29.89,12,1,12,0.00
2012-12-31,18,12,4,15,8,1,93,84,76,30.19,29.88,12,2,14,0.00
2013-1-1,14,8,-3,10,3,-6,90,80,61,30.25,30.08,12,1,12,0.00